Time;durP1;ratioP1;P1;durP2;ratioP2;P2;SDS_P1;SDS_P2;PMS_P1;PMS_P2;Temp;Humidity;BMP_temperature;BMP_pressure;BME280_temperature;BME280_humidity;BME280_pressure;Samples;Min_cycle;Max_cycle;Signal;HPM_P1;HPM_P2
2022/06/15 00:02:18;;;;;;;3.23;2.27;;;;;;;16.96;56.21;100812.42;1440691;90;21509;-79
2022/06/15 00:04:44;;;;;;;3.73;2.00;;;;;;;16.95;56.02;100813.95;1429417;91;21390;-79
2022/06/15 00:07:10;;;;;;;7.03;2.17;;;;;;;16.91;56.11;100813.47;1442486;90;21568;-79
2022/06/15 00:09:36;;;;;;;3.03;2.00;;;;;;;16.90;55.93;100809.14;1433772;89;21570;-80
2022/06/15 00:12:02;;;;;;;6.63;2.20;;;;;;;16.89;55.98;100812.32;1422317;90;22352;-79
2022/06/15 00:14:30;;;;;;;6.20;2.10;;;;;;;16.90;55.94;100821.17;1430168;91;21928;-79
2022/06/15 00:16:56;;;;;;;5.70;2.50;;;;;;;16.91;55.93;100814.80;1385420;94;21544;-79
2022/06/15 00:19:23;;;;;;;6.07;2.20;;;;;;;16.92;55.85;100819.16;1397994;93;21584;-79
2022/06/15 00:21:49;;;;;;;3.47;2.30;;;;;;;16.91;55.93;100815.63;1426654;91;21472;-79
2022/06/15 00:24:15;;;;;;;4.87;1.97;;;;;;;16.90;56.00;100818.50;1437873;90;21918;-80
2022/06/15 00:26:42;;;;;;;2.93;2.00;;;;;;;16.88;56.46;100811.15;1447516;90;22336;-80
2022/06/15 00:29:10;;;;;;;3.33;2.03;;;;;;;16.87;56.54;100814.33;1444954;90;21472;-80
2022/06/15 00:31:36;;;;;;;3.30;2.10;;;;;;;16.82;56.83;100815.38;1446710;90;22322;-80
2022/06/15 00:34:03;;;;;;;7.03;1.90;;;;;;;16.80;57.21;100813.88;1441084;90;21398;-80
2022/06/15 00:36:30;;;;;;;7.20;2.60;;;;;;;16.75;57.66;100816.25;1440600;90;21472;-80
2022/06/15 00:38:59;;;;;;;4.23;1.77;;;;;;;16.70;57.38;100816.27;1443963;90;21553;-79
2022/06/15 00:41:37;;;;;;;6.63;2.10;;;;;;;16.66;57.52;100818.98;1438354;89;21501;-79
2022/06/15 00:44:34;;;;;;;6.60;2.70;;;;;;;16.62;57.89;100817.66;1437085;90;21405;-78
2022/06/15 00:47:04;;;;;;;7.10;1.87;;;;;;;16.57;57.43;100818.71;1425434;90;21418;-78
2022/06/15 00:49:48;;;;;;;3.70;1.92;;;;;;;16.53;57.31;100808.03;1426042;90;22024;-78
2022/06/15 00:52:28;;;;;;;5.20;2.27;;;;;;;16.49;57.60;100810.75;1429721;90;22404;-78
2022/06/15 00:54:53;;;;;;;3.80;1.93;;;;;;;16.46;57.96;100809.77;1439495;90;21398;-78
2022/06/15 00:57:20;;;;;;;5.07;2.30;;;;;;;16.43;58.01;100811.45;1446872;90;21457;-78
2022/06/15 00:59:58;;;;;;;4.90;1.83;;;;;;;16.39;58.29;100815.47;1448011;90;21390;-78
2022/06/15 01:02:25;;;;;;;3.20;2.13;;;;;;;16.34;58.30;100814.68;1440869;90;21539;-79
2022/06/15 01:05:09;;;;;;;5.20;2.80;;;;;;;16.31;58.20;100814.17;1444855;90;21471;-79
2022/06/15 01:08:08;;;;;;;3.77;2.03;;;;;;;16.28;58.33;100813.19;1423388;92;21457;-80
2022/06/15 01:11:08;;;;;;;8.37;2.10;;;;;;;16.23;58.25;100810.56;1418309;91;21974;-80
2022/06/15 01:13:48;;;;;;;5.40;2.08;;;;;;;16.17;58.36;100811.73;1389776;94;21899;-80
2022/06/15 01:16:53;;;;;;;6.87;1.90;;;;;;;16.13;58.19;100815.27;1411600;90;21679;-81
2022/06/15 01:19:48;;;;;;;4.53;2.07;;;;;;;16.08;58.23;100818.95;1406690;92;22970;-81
2022/06/15 01:22:46;;;;;;;7.67;2.10;;;;;;;16.04;58.10;100814.98;1423361;90;21667;-81
2022/06/15 01:25:30;;;;;;;5.20;2.10;;;;;;;15.99;58.47;100814.66;1425359;91;21457;-80
2022/06/15 01:28:18;;;;;;;6.73;2.27;;;;;;;15.92;58.70;100815.05;1410664;93;21528;-80
2022/06/15 01:31:12;;;;;;;3.40;1.70;;;;;;;15.83;58.59;100814.75;1399292;93;21414;-80
2022/06/15 01:33:59;;;;;;;3.53;2.03;;;;;;;15.73;59.41;100818.42;1436471;90;22473;-80
2022/06/15 01:36:46;;;;;;;3.90;2.00;;;;;;;15.63;59.93;100811.11;1408132;91;21470;-80
2022/06/15 01:39:20;;;;;;;9.97;2.20;;;;;;;15.54;60.02;100802.80;1392781;94;21475;-85
2022/06/15 01:42:08;;;;;;;5.87;1.80;;;;;;;15.47;59.76;100805.80;1431737;90;21397;-80
2022/06/15 01:44:46;;;;;;;3.27;1.90;;;;;;;15.42;60.15;100808.14;1442971;90;21316;-80
2022/06/15 01:47:17;;;;;;;4.27;2.47;;;;;;;15.34;60.51;100803.17;1425625;91;23351;-80
2022/06/15 01:50:06;;;;;;;4.00;1.80;;;;;;;15.29;60.63;100814.84;1390455;92;21571;-81
2022/06/15 01:52:40;;;;;;;3.80;1.80;;;;;;;15.22;60.68;100812.53;1428268;91;22534;-81
2022/06/15 01:55:15;;;;;;;2.30;1.60;;;;;;;15.17;60.80;100812.70;1435771;91;21456;-81
2022/06/15 01:57:43;;;;;;;7.13;1.63;;;;;;;15.11;60.40;100808.88;1395269;93;22308;-81
2022/06/15 02:00:17;;;;;;;7.30;2.37;;;;;;;15.08;60.46;100810.54;1436648;91;21421;-80
2022/06/15 02:03:28;;;;;;;4.87;2.03;;;;;;;15.07;60.39;100807.52;1391324;94;21472;-79
2022/06/15 02:06:21;;;;;;;2.33;1.53;;;;;;;15.08;60.39;100807.38;1427771;91;21405;-80
2022/06/15 02:09:05;;;;;;;6.60;2.20;;;;;;;15.06;60.71;100809.36;1430655;90;21486;-80
2022/06/15 02:11:41;;;;;;;4.73;1.80;;;;;;;15.05;60.72;100809.55;1424455;90;22373;-80
2022/06/15 02:14:34;;;;;;;5.00;2.50;;;;;;;15.02;60.74;100810.71;1424523;91;22572;-80
2022/06/15 02:17:05;;;;;;;2.90;1.80;;;;;;;14.99;61.38;100806.19;1427930;91;21434;-80
2022/06/15 02:19:40;;;;;;;2.33;1.80;;;;;;;14.95;61.08;100808.87;1429847;91;21509;-80
2022/06/15 02:22:12;;;;;;;3.63;1.80;;;;;;;14.86;62.45;100805.38;1430062;91;21723;-80
2022/06/15 02:24:40;;;;;;;2.60;1.67;;;;;;;14.76;62.65;100810.88;1383949;94;21464;-80
2022/06/15 02:27:09;;;;;;;6.37;2.20;;;;;;;14.73;63.30;100811.20;1433915;91;22329;-80
2022/06/15 02:29:38;;;;;;;5.73;2.10;;;;;;;14.70;62.84;100811.51;1419129;90;23377;-81
2022/06/15 02:32:12;;;;;;;5.10;1.97;;;;;;;14.63;63.05;100811.84;1379150;94;22529;-81
2022/06/15 02:34:39;;;;;;;5.70;2.13;;;;;;;14.57;63.57;100820.50;1421905;91;22374;-81
2022/06/15 02:37:06;;;;;;;4.83;1.90;;;;;;;14.49;64.19;100821.78;1430261;90;21451;-81
2022/06/15 02:39:33;;;;;;;8.90;2.30;;;;;;;14.40;64.37;100826.25;1390899;93;22443;-81
2022/06/15 02:42:04;;;;;;;7.47;2.10;;;;;;;14.33;64.54;100828.74;1440522;89;21567;-81
2022/06/15 02:44:34;;;;;;;2.40;1.70;;;;;;;14.29;64.27;100827.37;1424400;92;21480;-81
2022/06/15 02:47:00;;;;;;;6.37;1.77;;;;;;;14.25;65.01;100818.06;1434478;90;21449;-81
2022/06/15 02:49:27;;;;;;;7.40;1.97;;;;;;;14.21;65.55;100827.35;1441240;90;21501;-81
2022/06/15 02:52:00;;;;;;;4.97;1.60;;;;;;;14.15;65.96;100825.34;1445386;90;21340;-81
2022/06/15 02:54:32;;;;;;;4.93;1.70;;;;;;;14.10;66.62;100831.66;1447582;90;21660;-81
2022/06/15 02:56:58;;;;;;;4.27;2.40;;;;;;;14.07;66.74;100830.16;1453885;90;22293;-81
2022/06/15 02:59:24;;;;;;;4.53;2.57;;;;;;;14.07;66.66;100835.95;1447572;90;21435;-81
2022/06/15 03:01:50;;;;;;;2.80;1.83;;;;;;;14.08;66.54;100834.98;1439507;90;22274;-82
2022/06/15 03:04:16;;;;;;;3.90;2.27;;;;;;;14.09;66.78;100829.98;1383390;94;21391;-81
2022/06/15 03:06:42;;;;;;;5.77;2.63;;;;;;;14.09;67.10;100831.31;1426608;90;21450;-82
2022/06/15 03:09:08;;;;;;;4.43;2.00;;;;;;;14.07;66.89;100834.63;1387209;94;21435;-82
2022/06/15 03:11:35;;;;;;;5.97;2.00;;;;;;;14.06;66.97;100839.11;1429364;90;21427;-81
2022/06/15 03:14:00;;;;;;;4.37;2.00;;;;;;;14.07;67.02;100838.14;1394855;92;21541;-81
2022/06/15 03:16:27;;;;;;;8.90;2.40;;;;;;;14.09;67.21;100836.63;1442277;89;21405;-81
2022/06/15 03:18:53;;;;;;;4.20;2.30;;;;;;;14.09;67.40;100839.30;1440271;90;22307;-81
2022/06/15 03:21:20;;;;;;;5.60;2.73;;;;;;;14.06;68.02;100841.78;1436430;90;21406;-81
2022/06/15 03:23:47;;;;;;;2.90;2.20;;;;;;;14.08;67.43;100845.62;1434997;90;21545;-82
2022/06/15 03:26:13;;;;;;;4.90;2.17;;;;;;;14.08;67.41;100846.45;1450117;90;21354;-82
2022/06/15 03:28:40;;;;;;;3.07;2.40;;;;;;;14.09;67.08;100845.95;1447404;90;21561;-82
2022/06/15 03:31:07;;;;;;;5.17;2.40;;;;;;;14.09;67.58;100849.44;1445261;90;21590;-82
2022/06/15 03:33:33;;;;;;;9.10;2.27;;;;;;;14.12;67.40;100857.60;1444948;90;21420;-81
2022/06/15 03:35:59;;;;;;;9.03;2.87;;;;;;;14.11;68.17;100847.45;1444516;90;21360;-81
2022/06/15 03:38:28;;;;;;;3.73;2.20;;;;;;;14.13;68.29;100856.63;1445528;90;21406;-81
2022/06/15 03:40:55;;;;;;;9.13;2.27;;;;;;;14.15;68.50;100857.28;1439165;90;21496;-82
2022/06/15 03:43:21;;;;;;;3.70;2.13;;;;;;;14.18;68.93;100849.83;1448728;90;21597;-82
2022/06/15 03:45:47;;;;;;;6.20;2.53;;;;;;;14.23;68.19;100854.66;1424042;92;21584;-82
2022/06/15 03:48:14;;;;;;;4.53;2.23;;;;;;;14.26;68.80;100846.34;1434593;91;21562;-81
2022/06/15 03:50:40;;;;;;;3.27;1.83;;;;;;;14.32;68.31;100852.34;1434545;91;21553;-80
2022/06/15 03:53:07;;;;;;;4.87;2.23;;;;;;;14.40;67.70;100859.54;1435158;91;21471;-81
2022/06/15 03:55:35;;;;;;;7.10;2.50;;;;;;;14.45;67.64;100852.73;1435061;90;21487;-81
2022/06/15 03:58:01;;;;;;;14.23;3.47;;;;;;;14.52;68.11;100858.77;1440741;91;21434;-81
2022/06/15 04:00:30;;;;;;;3.87;2.10;;;;;;;14.52;66.89;100860.92;1389814;92;21435;-81
2022/06/15 04:02:56;;;;;;;8.60;2.10;;;;;;;14.53;66.57;100856.43;1430986;90;21864;-81
2022/06/15 04:05:27;;;;;;;3.97;1.90;;;;;;;14.56;66.38;100860.95;1444888;90;22306;-81
2022/06/15 04:10:39;;;;;;;6.77;2.40;;;;;;;14.65;65.81;100859.97;1447874;90;21435;-80
2022/06/15 04:13:05;;;;;;;3.63;2.20;;;;;;;14.71;66.07;100864.31;1450790;89;21442;-80
2022/06/15 04:15:32;;;;;;;4.40;1.60;;;;;;;14.78;66.32;100862.65;1444164;90;21339;-80
2022/06/15 04:17:57;;;;;;;3.47;1.80;;;;;;;14.87;65.98;100864.31;1445077;90;21450;-80
2022/06/15 04:20:32;;;;;;;7.17;2.23;;;;;;;15.04;66.13;100865.17;1448679;90;22323;-80
2022/06/15 04:23:00;;;;;;;5.53;2.33;;;;;;;15.21;65.57;100866.84;1444377;90;22506;-80
2022/06/15 04:25:28;;;;;;;4.83;2.37;;;;;;;15.41;65.11;100869.16;1443083;90;22382;-81
2022/06/15 04:27:55;;;;;;;8.50;2.80;;;;;;;15.58;64.30;100864.97;1446990;90;21479;-81
2022/06/15 04:30:21;;;;;;;10.37;2.40;;;;;;;15.71;64.42;100863.16;1423446;91;21909;-81
2022/06/15 04:32:48;;;;;;;6.43;2.33;;;;;;;15.77;62.99;100865.14;1432568;91;21680;-81
2022/06/15 04:35:15;;;;;;;7.70;2.60;;;;;;;15.81;62.68;100866.95;1432003;91;23209;-81
2022/06/15 04:37:41;;;;;;;12.27;3.17;;;;;;;15.87;63.04;100872.11;1383750;94;21590;-80
2022/06/15 04:40:09;;;;;;;9.43;2.27;;;;;;;15.89;62.95;100867.44;1426395;90;21520;-79
2022/06/15 04:42:36;;;;;;;6.13;2.07;;;;;;;15.86;62.28;100867.78;1437461;90;21471;-79
2022/06/15 04:45:04;;;;;;;19.50;3.00;;;;;;;15.89;62.05;100876.78;1439956;91;21472;-78
2022/06/15 04:47:36;;;;;;;8.03;2.90;;;;;;;15.90;61.66;100873.09;1433465;91;21390;-78
2022/06/15 04:50:05;;;;;;;7.90;2.40;;;;;;;15.97;61.39;100874.09;1432378;91;22328;-78
2022/06/15 04:52:32;;;;;;;8.73;2.63;;;;;;;16.04;61.85;100872.38;1384489;94;21427;-77
2022/06/15 04:54:59;;;;;;;17.13;2.87;;;;;;;16.06;61.37;100874.39;1431658;90;21482;-78
2022/06/15 04:57:25;;;;;;;8.53;2.50;;;;;;;16.11;61.33;100871.19;1431842;90;21468;-78
2022/06/15 04:59:51;;;;;;;19.13;2.73;;;;;;;16.17;61.34;100875.83;1388026;94;21562;-77
2022/06/15 05:02:17;;;;;;;7.03;2.60;;;;;;;16.19;60.98;100874.65;1398339;93;21525;-78
2022/06/15 05:04:43;;;;;;;8.30;2.63;;;;;;;16.24;60.77;100876.30;1424378;90;21347;-78
2022/06/15 05:07:09;;;;;;;6.83;2.63;;;;;;;16.36;60.73;100878.59;1449669;90;21501;-79
2022/06/15 05:09:36;;;;;;;4.40;2.30;;;;;;;16.49;61.14;100881.55;1445270;90;21464;-80
2022/06/15 05:12:02;;;;;;;5.17;2.30;;;;;;;16.63;60.71;100886.14;1445630;90;22440;-80
2022/06/15 05:14:28;;;;;;;5.17;2.00;;;;;;;16.76;60.42;100884.72;1430399;89;21420;-84
2022/06/15 05:16:54;;;;;;;5.37;1.87;;;;;;;16.86;59.69;100879.99;1449101;90;21376;-84
2022/06/15 05:19:21;;;;;;;5.60;2.53;;;;;;;16.97;59.23;100886.27;1441555;90;22300;-81
2022/06/15 05:21:48;;;;;;;7.10;2.37;;;;;;;17.09;59.13;100883.52;1439293;90;21406;-81
2022/06/15 05:24:14;;;;;;;4.90;2.30;;;;;;;17.24;58.94;100888.09;1392846;93;21451;-81
2022/06/15 05:26:40;;;;;;;7.67;2.07;;;;;;;17.36;58.75;100880.78;1444306;90;21465;-82
2022/06/15 05:29:06;;;;;;;1.93;1.73;;;;;;;17.49;58.46;100888.20;1432694;90;21486;-82
2022/06/15 05:31:38;;;;;;;4.27;2.10;;;;;;;17.64;57.53;100895.42;1393444;94;21420;-80
2022/06/15 05:34:06;;;;;;;3.37;1.93;;;;;;;17.75;57.33;100898.97;1439992;90;21457;-80
2022/06/15 05:36:37;;;;;;;5.03;1.70;;;;;;;17.90;57.16;100898.52;1445423;89;23265;-80
2022/06/15 05:39:04;;;;;;;6.13;2.07;;;;;;;17.99;56.76;100895.24;1444396;90;21435;-81
2022/06/15 05:41:31;;;;;;;2.53;1.90;;;;;;;18.12;54.73;100893.24;1428137;90;21406;-81
2022/06/15 05:44:01;;;;;;;8.77;1.73;;;;;;;18.21;55.69;100897.00;1444341;90;21443;-81
2022/06/15 05:46:30;;;;;;;12.00;2.00;;;;;;;18.26;54.07;100893.73;1439094;90;23383;-81
2022/06/15 05:48:59;;;;;;;3.00;1.70;;;;;;;18.35;53.94;100900.65;1440658;90;21908;-81
2022/06/15 05:51:25;;;;;;;9.97;2.07;;;;;;;18.43;53.06;100899.72;1446800;90;21420;-81
2022/06/15 05:53:52;;;;;;;5.90;2.00;;;;;;;18.55;53.16;100902.75;1445978;90;21508;-81
2022/06/15 05:56:18;;;;;;;3.77;1.87;;;;;;;18.59;52.44;100900.03;1448814;90;21538;-81
2022/06/15 05:58:45;;;;;;;3.00;1.57;;;;;;;18.68;51.49;100904.25;1428551;90;21531;-81
2022/06/15 06:01:19;;;;;;;5.10;1.97;;;;;;;18.70;51.36;100906.21;1433993;90;21405;-83
2022/06/15 06:03:45;;;;;;;4.20;2.37;;;;;;;18.75;51.08;100907.85;1441780;90;22388;-83
2022/06/15 06:06:12;;;;;;;4.50;2.10;;;;;;;18.86;50.98;100907.36;1441818;90;21449;-82
2022/06/15 06:08:38;;;;;;;5.13;1.73;;;;;;;19.00;51.44;100912.88;1396191;93;21391;-82
2022/06/15 06:11:05;;;;;;;8.03;1.97;;;;;;;19.07;50.63;100915.92;1432782;90;21494;-81
2022/06/15 06:13:32;;;;;;;5.67;3.95;;;;;;;19.05;49.78;100917.16;1402979;93;21445;-82
2022/06/15 06:15:58;;;;;;;9.35;2.20;;;;;;;19.13;50.51;100914.33;1434216;90;21457;-82
2022/06/15 06:18:25;;;;;;;4.80;2.08;;;;;;;19.35;51.11;100922.69;1436732;91;21390;-82
2022/06/15 06:20:52;;;;;;;2.00;1.65;;;;;;;19.59;50.65;100923.28;1441430;90;22004;-82
2022/06/15 06:23:19;;;;;;;3.35;2.05;;;;;;;19.77;48.61;100921.00;1394336;92;21590;-81
2022/06/15 06:25:50;;;;;;;10.60;2.17;;;;;;;19.95;49.73;100927.72;1393293;92;22405;-82
2022/06/15 06:28:33;;;;;;;;;;;;;;;20.03;48.12;100927.56;1416736;92;21604;-82
2022/06/15 06:31:03;;;;;;;8.48;1.80;;;;;;;19.90;46.45;100933.67;1406122;92;20472;-82
2022/06/15 06:33:33;;;;;;;20.93;2.30;;;;;;;19.81;47.10;100933.52;1418516;90;21494;-82
2022/06/15 06:36:08;;;;;;;1.98;1.47;;;;;;;19.87;48.54;100935.92;1433510;90;23268;-81
2022/06/15 06:38:35;;;;;;;4.28;2.17;;;;;;;19.84;47.69;100921.86;1441779;90;21427;-82
2022/06/15 06:41:02;;;;;;;6.08;1.75;;;;;;;19.83;47.62;100926.92;1412219;91;21516;-82
2022/06/15 06:43:28;;;;;;;5.50;2.00;;;;;;;19.74;46.52;100926.77;1433236;91;21413;-83
2022/06/15 06:45:54;;;;;;;3.90;2.08;;;;;;;19.75;45.33;100918.19;1437623;90;21509;-81
2022/06/15 06:48:20;;;;;;;5.60;1.70;;;;;;;19.91;46.61;100918.37;1434778;90;21383;-81
2022/06/15 06:50:46;;;;;;;7.75;2.00;;;;;;;20.05;45.58;100926.34;1387195;94;22396;-82
2022/06/15 06:53:14;;;;;;;2.52;1.60;;;;;;;20.27;46.51;100925.72;1429856;91;21428;-82
2022/06/15 06:55:41;;;;;;;5.67;1.87;;;;;;;20.44;46.00;100926.22;1389334;92;21317;-82
2022/06/15 06:58:07;;;;;;;3.92;1.70;;;;;;;20.61;45.91;100925.39;1417046;91;21467;-82
2022/06/15 07:00:35;;;;;;;9.23;2.30;;;;;;;20.69;45.50;100929.25;1425992;90;21479;-82
2022/06/15 07:03:04;;;;;;;2.83;1.65;;;;;;;20.76;45.74;100927.09;1388346;93;21877;-81
2022/06/15 07:05:33;;;;;;;6.62;2.22;;;;;;;20.91;46.14;100923.19;1435991;91;21457;-83
2022/06/15 07:07:59;;;;;;;9.43;2.22;;;;;;;21.11;46.26;100923.75;1390363;94;21412;-84
2022/06/15 07:10:26;;;;;;;10.13;1.95;;;;;;;21.22;45.49;100926.36;1435171;91;21996;-84
2022/06/15 07:12:58;;;;;;;4.47;2.05;;;;;;;21.32;45.55;100920.03;1403299;92;21517;-84
2022/06/15 07:15:24;;;;;;;4.05;1.92;;;;;;;21.24;42.96;100915.70;1433781;91;21538;-84
2022/06/15 07:17:50;;;;;;;3.45;1.62;;;;;;;21.42;43.77;100916.98;1433221;91;22388;-83
2022/06/15 07:20:18;;;;;;;3.37;1.70;;;;;;;21.41;41.46;100913.47;1396611;92;21407;-83
2022/06/15 07:22:44;;;;;;;4.12;1.45;;;;;;;21.53;40.46;100914.48;1398566;92;22516;-84
2022/06/15 07:25:11;;;;;;;6.30;1.80;;;;;;;21.65;42.79;100916.56;1444288;90;21371;-84
2022/06/15 07:27:57;;;;;;;4.93;1.87;;;;;;;21.68;40.87;100916.96;1428102;90;21384;-84
2022/06/15 07:30:27;;;;;;;4.37;1.77;;;;;;;21.78;40.75;100910.64;1425525;90;22485;-84
2022/06/15 07:32:54;;;;;;;8.58;1.80;;;;;;;21.75;39.73;100914.25;1427237;91;21371;-83
2022/06/15 07:35:29;;;;;;;9.75;1.80;;;;;;;21.94;40.43;100910.70;1434490;91;21590;-83
2022/06/15 07:37:55;;;;;;;5.40;1.98;;;;;;;22.07;39.72;100910.67;1431696;89;21441;-83
2022/06/15 07:40:23;;;;;;;3.92;1.72;;;;;;;22.06;39.83;100914.39;1448114;90;22382;-83
2022/06/15 07:42:52;;;;;;;4.65;1.70;;;;;;;22.02;37.31;100909.13;1439972;90;22432;-83
2022/06/15 07:45:22;;;;;;;5.05;2.30;;;;;;;22.02;37.31;100909.13;1445284;90;22512;-83
2022/06/15 07:50:34;;;;;;;9.23;1.77;;;;;;;22.17;39.25;100878.40;1444996;90;21531;-83
2022/06/15 07:53:02;;;;;;;5.72;1.67;;;;;;;22.52;39.53;100912.08;1441003;90;21524;-84
2022/06/15 07:55:33;;;;;;;5.40;2.45;;;;;;;22.64;39.14;100906.01;1392559;93;21516;-84
2022/06/15 07:58:00;;;;;;;4.00;1.70;;;;;;;22.64;39.14;100906.01;1436229;90;21354;-83
2022/06/15 08:00:28;;;;;;;6.55;2.10;;;;;;;22.72;37.06;100908.46;1432872;90;21496;-84
2022/06/15 08:02:55;;;;;;;6.50;2.17;;;;;;;22.72;37.06;100908.46;1433765;90;21483;-84
2022/06/15 08:05:22;;;;;;;4.60;1.40;;;;;;;22.74;36.81;100908.55;1425451;90;23052;-84
2022/06/15 08:07:51;;;;;;;10.40;1.63;;;;;;;22.70;35.44;100910.54;1419027;90;21443;-83
2022/06/15 08:10:23;;;;;;;8.33;1.70;;;;;;;22.66;36.33;100906.62;1417751;91;21576;-83
2022/06/15 08:12:49;;;;;;;6.65;2.52;;;;;;;22.79;36.90;100913.31;1420204;91;21354;-84
2022/06/15 08:15:16;;;;;;;2.05;1.35;;;;;;;22.95;35.81;100906.06;1424750;91;21406;-82
2022/06/15 08:17:51;;;;;;;3.55;1.30;;;;;;;23.16;36.41;100910.80;1488416;90;22287;-85
2022/06/15 08:20:33;;;;;;;7.80;1.72;;;;;;;23.25;36.03;100910.01;1395648;91;21361;-84
2022/06/15 08:23:05;;;;;;;12.80;2.80;;;;;;;23.16;36.70;100913.50;1512972;91;21340;-84
2022/06/15 08:25:39;;;;;;;3.20;1.40;;;;;;;23.29;36.17;100916.11;1431462;92;21538;-84
2022/06/15 08:28:07;;;;;;;6.80;2.37;;;;;;;23.28;35.00;100918.52;1395976;92;21509;-84
2022/06/15 08:30:37;;;;;;;6.17;1.47;;;;;;;23.39;36.39;100922.36;1420783;90;21597;-84
2022/06/15 08:33:05;;;;;;;6.47;2.10;;;;;;;23.46;36.39;100919.63;1443874;90;22697;-79
2022/06/15 08:35:32;;;;;;;4.25;1.55;;;;;;;23.62;36.22;100922.59;1438564;90;21361;-80
2022/06/15 08:37:58;;;;;;;5.22;1.62;;;;;;;23.72;33.80;100916.70;1430534;90;21450;-80
2022/06/15 08:40:29;;;;;;;9.15;1.67;;;;;;;23.88;34.59;100913.97;1435065;90;22462;-80
2022/06/15 08:43:10;;;;;;;9.05;1.80;;;;;;;24.08;34.52;100917.78;1376773;94;21450;-80
2022/06/15 08:45:50;;;;;;;2.60;1.55;;;;;;;24.07;32.57;100920.20;1429742;90;21442;-80
2022/06/15 08:48:28;;;;;;;5.00;1.30;;;;;;;24.00;31.33;100918.11;1439169;90;21650;-80
2022/06/15 08:51:02;;;;;;;4.83;1.47;;;;;;;23.91;32.62;100918.07;1433268;90;21495;-80
2022/06/15 08:53:43;;;;;;;3.62;1.60;;;;;;;23.83;32.84;100920.03;1419605;91;21569;-80
2022/06/15 08:56:33;;;;;;;676.58;57.27;;;;;;;23.71;33.14;100918.27;1418194;92;21501;-79
2022/06/15 08:59:02;;;;;;;;;;;;;;;23.83;34.64;100913.80;1427126;92;21479;-80
2022/06/15 09:01:53;;;;;;;6.65;2.12;;;;;;;24.10;34.41;100910.28;1422989;89;20480;-80
2022/06/15 09:05:03;;;;;;;16.60;3.08;;;;;;;24.23;34.10;100904.73;1428010;90;21368;-80
2022/06/15 09:08:04;;;;;;;1.80;0.90;;;;;;;24.34;33.95;100905.86;1437129;90;22241;-78
2022/06/15 09:10:59;;;;;;;14.93;3.30;;;;;;;24.25;30.80;100910.72;1402253;90;21533;-80
2022/06/15 09:13:57;;;;;;;3.87;1.62;;;;;;;24.44;32.73;100910.22;1437833;90;22522;-80
2022/06/15 09:16:38;;;;;;;5.80;1.60;;;;;;;24.38;31.62;100907.57;1430514;90;21345;-80
2022/06/15 09:19:15;;;;;;;12.45;3.42;;;;;;;24.60;32.47;100908.78;1421160;91;21479;-78
2022/06/15 09:21:47;;;;;;;8.25;1.98;;;;;;;24.66;32.47;100909.21;1426630;90;22320;-78
2022/06/15 09:24:23;;;;;;;2.05;1.25;;;;;;;24.95;32.22;100906.72;1388767;91;21480;-77
2022/06/15 09:27:05;;;;;;;4.60;1.55;;;;;;;25.18;31.56;100905.98;1483947;91;22301;-79
2022/06/15 09:29:44;;;;;;;2.65;1.22;;;;;;;25.27;30.13;100904.58;1378283;91;21494;-78
2022/06/15 09:32:37;;;;;;;2.52;2.25;;;;;;;25.43;31.98;100900.34;1426475;91;21457;-79
2022/06/15 09:35:18;;;;;;;4.85;1.42;;;;;;;25.75;32.30;100902.70;1432729;91;21479;-80
2022/06/15 09:37:52;;;;;;;2.65;1.30;;;;;;;25.80;31.89;100896.86;1436623;91;21457;-79
2022/06/15 09:40:19;;;;;;;4.97;1.20;;;;;;;25.74;31.02;100900.53;1431899;91;21449;-79
2022/06/15 09:43:09;;;;;;;4.33;1.42;;;;;;;25.75;31.09;100904.05;1431954;90;21561;-80
2022/06/15 09:46:29;;;;;;;5.60;1.10;;;;;;;25.88;30.52;100899.78;1434292;91;21619;-78
2022/06/15 09:49:14;;;;;;;5.03;1.35;;;;;;;26.00;30.86;100897.87;1429484;91;21465;-79
2022/06/15 09:52:07;;;;;;;2.58;1.00;;;;;;;25.99;29.13;100894.87;1433355;91;21449;-80
2022/06/15 09:54:56;;;;;;;4.87;1.20;;;;;;;25.99;30.50;100893.52;1449701;90;21414;-80
2022/06/15 09:57:23;;;;;;;1.67;0.98;;;;;;;26.16;30.33;100894.15;1426754;91;21346;-80
2022/06/15 09:59:50;;;;;;;2.22;1.25;;;;;;;26.23;30.19;100892.93;1435514;90;22786;-80
2022/06/15 10:02:30;;;;;;;2.72;1.20;;;;;;;25.95;29.91;100895.58;1427126;91;21390;-80
2022/06/15 10:05:00;;;;;;;3.37;1.62;;;;;;;26.07;29.85;100893.16;1430713;90;21737;-80
2022/06/15 10:07:38;;;;;;;20.65;4.15;;;;;;;26.04;29.15;100895.00;1432108;91;22479;-80
2022/06/15 10:10:22;;;;;;;6.58;1.75;;;;;;;26.04;30.12;100888.75;1435864;91;21516;-80
2022/06/15 10:12:59;;;;;;;4.47;1.20;;;;;;;26.29;30.31;100889.25;1433066;91;22008;-80
2022/06/15 10:15:42;;;;;;;70.87;5.25;;;;;;;26.44;30.48;100891.47;1434992;91;21517;-80
2022/06/15 10:18:37;;;;;;;10.72;1.80;;;;;;;26.46;29.16;100883.89;1434951;91;21427;-80
2022/06/15 10:21:14;;;;;;;7.80;1.90;;;;;;;26.61;29.68;100889.34;1432231;90;21449;-80
2022/06/15 10:24:05;;;;;;;4.65;1.60;;;;;;;26.43;29.70;100886.27;1429002;91;21546;-80
2022/06/15 10:26:39;;;;;;;3.62;1.20;;;;;;;26.26;29.62;100880.78;1430272;90;21508;-79
2022/06/15 10:29:23;;;;;;;8.95;1.75;;;;;;;26.23;29.30;100885.33;1436381;91;22294;-80
2022/06/15 10:32:10;;;;;;;4.65;1.77;;;;;;;26.27;30.04;100888.69;1434894;91;22366;-80
2022/06/15 10:34:50;;;;;;;5.85;1.70;;;;;;;26.65;30.28;100878.31;1424652;91;22507;-80
2022/06/15 10:37:46;;;;;;;44.15;7.87;;;;;;;26.81;30.26;100880.22;1432430;90;21450;-80
2022/06/15 10:40:28;;;;;;;7.53;2.62;;;;;;;27.10;30.61;100878.27;1429927;91;21550;-80
2022/06/15 10:43:08;;;;;;;14.33;2.95;;;;;;;26.90;28.96;100874.70;1430425;91;22441;-80
2022/06/15 10:45:42;;;;;;;10.68;2.45;;;;;;;26.61;29.95;100871.70;1433125;91;22502;-78
2022/06/15 10:48:16;;;;;;;4.22;1.77;;;;;;;26.31;30.16;100872.75;1412055;91;21685;-78
2022/06/15 10:50:53;;;;;;;29.45;5.87;;;;;;;26.10;29.38;100875.05;1437437;91;21781;-78
2022/06/15 10:53:34;;;;;;;9.45;1.35;;;;;;;25.86;30.90;100871.55;1434499;91;21619;-77
2022/06/15 11:04:35;;;;;;;11.80;1.82;;;;;;;25.70;29.91;100874.15;1430292;91;22343;-80
2022/06/15 11:07:22;;;;;;;4.30;2.10;;;;;;;25.18;30.99;100866.71;1430132;91;22447;-80
2022/06/15 11:09:57;;;;;;;9.73;1.80;;;;;;;24.94;31.45;100868.50;1433580;91;21420;-80
2022/06/15 11:12:28;;;;;;;5.50;1.60;;;;;;;24.63;31.30;100862.81;1430685;91;21420;-80
2022/06/15 11:15:00;;;;;;;3.98;1.17;;;;;;;24.78;32.03;100860.53;1420898;90;21532;-80
2022/06/15 11:20:54;;;;;;;5.90;1.67;;;;;;;25.61;29.69;100860.95;1490532;92;22262;-79
2022/06/15 11:23:52;;;;;;;7.50;1.87;;;;;;;25.84;29.54;100851.18;1463326;92;22961;-80
2022/06/15 11:29:36;;;;;;;5.12;1.70;;;;;;;26.56;29.57;100846.67;1433468;93;21412;-81
2022/06/15 11:32:37;;;;;;;4.58;1.12;;;;;;;26.94;28.92;100842.44;1411266;92;21318;-80
2022/06/15 11:35:15;;;;;;;5.37;1.00;;;;;;;26.98;28.61;100844.39;1488539;92;21378;-80
2022/06/15 11:38:08;;;;;;;3.15;1.82;;;;;;;26.88;27.54;100840.17;1490487;92;21288;-80
2022/06/15 11:40:54;;;;;;;4.37;1.77;;;;;;;27.02;28.52;100840.67;1430433;92;22330;-80
2022/06/15 11:43:28;;;;;;;1.95;1.00;;;;;;;27.16;28.80;100839.81;1490674;92;22081;-80
2022/06/15 11:46:18;;;;;;;4.33;1.30;;;;;;;27.13;28.74;100836.20;1483972;92;21370;-80
2022/06/15 11:49:16;;;;;;;9.25;1.25;;;;;;;27.33;28.55;100836.55;1441136;92;21472;-80
2022/06/15 11:52:08;;;;;;;7.40;1.55;;;;;;;27.30;27.61;100840.30;1401545;92;21637;-81
2022/06/15 11:55:02;;;;;;;2.37;1.27;;;;;;;27.48;28.17;100840.56;1426520;90;21501;-81
2022/06/15 11:57:50;;;;;;;6.47;1.50;;;;;;;27.67;27.42;100834.59;1432629;89;21457;-80
2022/06/15 12:00:45;;;;;;;2.50;1.20;;;;;;;27.80;27.00;100834.80;1440706;90;21435;-80
2022/06/15 12:03:54;;;;;;;2.45;1.60;;;;;;;28.06;28.80;100836.48;1423966;90;21420;-80
2022/06/15 12:06:43;;;;;;;4.53;1.00;;;;;;;28.28;27.66;100831.84;1424974;90;21638;-79
2022/06/15 12:09:35;;;;;;;3.08;1.22;;;;;;;27.70;25.81;100833.27;1426288;92;21355;-79
2022/06/15 12:15:40;;;;;;;3.30;1.50;;;;;;;26.79;27.93;100826.72;1422052;91;21645;-79
2022/06/15 12:18:24;;;;;;;3.08;1.17;;;;;;;26.77;27.39;100828.84;1427598;91;21490;-80
2022/06/15 12:21:19;;;;;;;2.70;1.42;;;;;;;26.86;28.51;100826.00;1435275;91;21573;-79